Flight Track Log - Related Links

Times and Time Zones

All times are in EDT time to prevent confusion due to time zone crossing. See the N728CA flight status page for this flight to view local times or setup timezone preferences in your user account.


Time Position Orientation Groundspeed Altitude Reporting Facility
EDT Latitude Longitude Course Direction KTS MPH feet Rate Location/Type
Sun 03:32:57 PM 42.7319 -73.8081 187° South 119 137 800  Level Boston Center
Sun 03:33:51 PM 42.7006 -73.8131 187° South 127 146 1,600 887 Climbing Boston Center
Sun 03:34:52 PM 42.6856 -73.8553 244° Southwest 137 158 2,500 891 Climbing Boston Center
Sun 03:35:59 PM 42.6642 -73.8997 237° Southwest 123 142 3,500 756 Climbing Boston Center
Sun 03:36:59 PM 42.6428 -73.9389 233° Southwest 123 142 4,100 595 Climbing Boston Center
Sun 03:38:00 PM 42.6214 -73.9778 233° Southwest 129 148 4,700 595 Climbing Boston Center
Sun 03:39:00 PM 42.6039 -74.0281 245° Southwest 138 159 5,300 532 Climbing Boston Center
Sun 03:40:04 PM 42.5844 -74.0728 239° Southwest 144 166 5,800 492 Climbing Boston Center
Sun 03:41:02 PM 42.5631 -74.1172 237° Southwest 145 167 6,300 494 Climbing Boston Center
Sun 03:41:29 PM 42.5525 -74.1367 234° Southwest 149 171 6,500 414 Climbing Boston Center
Sun 03:42:29 PM 42.5331 -74.1814 239° Southwest 149 171 6,900 450 Climbing Boston Center
Sun 03:43:29 PM 42.5092 -74.2342 238° Southwest 149 171 7,400 550 Climbing Boston Center
Sun 03:44:29 PM 42.4919 -74.2786 242° Southwest 149 171 8,000 533 Climbing Boston Center
Sun 03:46:29 PM 42.4464 -74.3731 237° Southwest 154 177 9,000 500 Climbing Boston Center
Sun 03:47:29 PM 42.4206 -74.4258 236° Southwest 159 183 9,500 400 Climbing Boston Center
Sun 03:48:29 PM 42.4011 -74.4700 239° Southwest 159 183 9,800 200 Climbing Boston Center
Sun 03:49:29 PM 42.3772 -74.5228 239° Southwest 171 197 9,900 50 Climbing Boston Center
Sun 03:50:29 PM 42.3531 -74.5808 241° Southwest 171 197 9,900  Level Boston Center
Sun 03:51:29 PM 42.3269 -74.6417 240° Southwest 176 203 9,900  Level Boston Center
Sun 03:52:29 PM 42.3050 -74.6944 241° Southwest 176 203 9,900  Level Boston Center
Sun 03:53:29 PM 42.2811 -74.7497 240° Southwest 181 208 9,900  Level Boston Center
Sun 03:54:29 PM 42.2550 -74.8047 237° Southwest 181 208 9,900  Level Boston Center
Sun 03:55:29 PM 42.2308 -74.8572 238° Southwest 181 208 9,900  Level Boston Center
Sun 03:56:29 PM 42.2044 -74.9150 238° Southwest 176 203 9,900  Level Boston Center
Sun 03:57:29 PM 42.1806 -74.9672 238° Southwest 176 203 9,900  Level Boston Center
Sun 03:58:29 PM 42.1342 -74.9933 203° Southwest 176 203 9,900  Level Boston Center
Sun 03:59:29 PM 42.0897 -75.0225 206° Southwest 176 203 9,900  Level Boston Center
Sun 04:01:00 PM 42.0285 -75.0637 207° Southwest  Level FlightAware Approximate
Sun 04:08:00 PM 41.7486 -75.2602 209° Southwest  Level FlightAware Approximate
Sun 04:09:00 PM 41.7090 -75.2890 209° Southwest  Level FlightAware Approximate
Sun 04:10:00 PM 41.6694 -75.3181 209° Southwest  Level FlightAware Approximate
Sun 04:10:41 PM 41.7617 -75.5206 257° West 170 196 9,900  Level New York Center
Sun 04:11:00 PM 41.6596 -75.3755 257° West  Level Estimated
Sun 04:11:42 PM 41.7511 -75.5808 257° West 170 196 9,900  Level New York Center
Sun 04:12:00 PM 41.6498 -75.4329 257° West  Level Estimated
Sun 04:12:39 PM 41.7425 -75.6386 259° West 170 196 10,000  Level New York Center
Sun 04:13:00 PM 41.6400 -75.4903 257° West  Level Estimated
Sun 04:13:40 PM 41.7292 -75.7044 255° West 175 201 9,900  Level New York Center
Sun 04:14:00 PM 41.6301 -75.5477 257° West  Level Estimated
Sun 04:14:41 PM 41.7161 -75.7672 254° West 175 201 9,900  Level New York Center
Sun 04:15:00 PM 41.6202 -75.6051 257° West  Level Estimated
Sun 04:15:41 PM 41.7056 -75.8219 256° West 180 207 9,900  Level New York Center
Sun 04:16:39 PM 41.6922 -75.8906 255° West 180 207 9,900  Level New York Center
Sun 04:17:39 PM 41.6792 -75.9506 254° West 180 207 9,900  Level New York Center
Sun 04:18:40 PM 41.6661 -76.0133 254° West 180 207 9,900 98 Level New York Center
Sun 04:19:41 PM 41.6553 -76.0653 254° West 180 207 10,100 99 Climbing New York Center
Sun 04:20:41 PM 41.6444 -76.1256 256° West 180 207 10,100  Level New York Center
Sun 04:21:39 PM 41.6308 -76.1939 255° West 180 207 10,100  Level New York Center
Sun 04:22:39 PM 41.6178 -76.2539 254° West 180 207 10,100  Level New York Center
Sun 04:23:40 PM 41.6064 -76.3194 257° West 180 207 10,100 -49 Level New York Center
Sun 04:24:41 PM 41.5933 -76.3739 252° West 180 207 10,000 -50 Descending New York Center
Sun 04:25:41 PM 41.5817 -76.4450 258° West 180 207 10,000  Level New York Center
Sun 04:26:41 PM 41.5703 -76.5050 256° West 180 207 10,000  Level New York Center
Sun 04:27:40 PM 41.5569 -76.5678 254° West 180 207 10,000  Level New York Center
Sun 04:28:41 PM 41.5458 -76.6222 255° West 180 207 10,000  Level New York Center
Sun 04:29:39 PM 41.5325 -76.6819 253° West 180 207 10,000  Level New York Center
Sun 04:30:41 PM 41.5208 -76.7475 257° West 180 207 10,000  Level New York Center
Sun 04:31:41 PM 41.5075 -76.8100 254° West 180 207 10,000  Level New York Center
Sun 04:32:39 PM 41.4939 -76.8725 254° West 180 207 10,000  Level New York Center
Sun 04:33:39 PM 41.4822 -76.9350 256° West 180 207 10,000  Level New York Center
Sun 04:34:39 PM 41.4686 -76.9975 254° West 180 207 10,000  Level New York Center
Sun 04:35:41 PM 41.4550 -77.0572 253° West 180 207 10,000  Level New York Center
Sun 04:36:39 PM 41.4433 -77.1169 255° West 180 207 10,000  Level New York Center
Sun 04:37:40 PM 41.4317 -77.1822 257° West 180 207 10,000  Level New York Center
Sun 04:38:41 PM 41.4200 -77.2422 255° West 180 207 10,000  Level New York Center
Sun 04:39:40 PM 41.4061 -77.3044 253° West 180 207 10,000  Level New York Center
Sun 04:40:40 PM 41.3944 -77.3642 255° West 180 207 10,000  Level New York Center
Sun 04:41:41 PM 41.3828 -77.4267 256° West 180 207 10,000  Level New York Center
Sun 04:42:41 PM 41.3689 -77.4861 253° West 180 207 10,000  Level New York Center
Sun 04:43:39 PM 41.3572 -77.5486 256° West 180 207 10,000  Level New York Center
Sun 04:44:41 PM 41.3431 -77.6106 253° West 180 207 10,000  Level New York Center
Sun 04:45:39 PM 41.3294 -77.6672 252° West 180 207 10,000  Level New York Center
Sun 04:46:40 PM 41.3175 -77.7297 256° West 180 207 10,000  Level New York Center
Sun 04:47:41 PM 41.3036 -77.7889 253° West 180 207 10,000  Level New York Center
Sun 04:48:40 PM 41.2917 -77.8486 255° West 180 207 10,000  Level New York Center
Sun 04:49:41 PM 41.2797 -77.9108 256° West 180 207 10,000 -35 Level New York Center
Sun 04:51:33 PM 41.2561 -78.0281 255° West 182 209 9,900 -35 Descending Cleveland Center
Sun 04:52:33 PM 41.2428 -78.0894 254° West 182 209 9,900  Level Cleveland Center
Sun 04:53:33 PM 41.2294 -78.1478 253° West 182 209 9,900  Level Cleveland Center
Sun 04:54:33 PM 41.2161 -78.2092 254° West 177 204 9,900  Level Cleveland Center
Sun 04:55:33 PM 41.2050 -78.2731 257° West 177 204 9,900  Level Cleveland Center
Sun 04:56:33 PM 41.1917 -78.3342 254° West 177 204 9,900  Level Cleveland Center
Sun 04:57:33 PM 41.1761 -78.3956 251° West 177 204 9,900  Level Cleveland Center
Sun 04:58:33 PM 41.1647 -78.4564 256° West 177 204 9,900  Level Cleveland Center
Sun 04:59:33 PM 41.1492 -78.5178 251° West 177 204 9,900  Level Cleveland Center
Sun 05:00:33 PM 41.1378 -78.5786 256° West 177 204 9,900  Level Cleveland Center
Sun 05:01:33 PM 41.1244 -78.6425 255° West 177 204 9,900  Level Cleveland Center
Sun 05:02:33 PM 41.1086 -78.7036 251° West 182 209 9,900  Level Cleveland Center
Sun 05:03:33 PM 41.0931 -78.7647 251° West 182 209 9,900  Level Cleveland Center
Sun 05:04:33 PM 41.0814 -78.8283 256° West 182 209 9,900  Level Cleveland Center
Sun 05:05:33 PM 41.0697 -78.8892 256° West 182 209 9,900  Level Cleveland Center
Sun 05:06:33 PM 41.0542 -78.9531 252° West 182 209 9,900 -50 Level Cleveland Center
Sun 05:07:33 PM 41.0403 -79.0139 253° West 182 209 9,800 -400 Descending Cleveland Center
Sun 05:08:33 PM 41.0247 -79.0831 253° West 187 215 9,100 -750 Descending Cleveland Center
Sun 05:09:33 PM 41.0089 -79.1550 254° West 192 221 8,300 -750 Descending Cleveland Center
Sun 05:10:33 PM 40.9911 -79.2269 252° West 197 227 7,600 -750 Descending Cleveland Center
Sun 05:11:33 PM 40.9750 -79.2933 252° West 197 227 6,800 -650 Descending Cleveland Center
Sun 05:12:33 PM 40.9592 -79.3597 252° West 197 227 6,300 -550 Descending Cleveland Center
Sun 05:13:33 PM 40.9453 -79.4258 254° West 197 227 5,700 -600 Descending Cleveland Center
Sun 05:14:33 PM 40.9292 -79.4919 252° West 192 221 5,100 -500 Descending Cleveland Center
Sun 05:15:33 PM 40.9153 -79.5556 254° West 192 221 4,700 -450 Descending Cleveland Center
Sun 05:16:33 PM 40.8928 -79.6189 245° Southwest 192 221 4,200 -400 Descending Cleveland Center
Sun 05:17:33 PM 40.8725 -79.6797 246° West 192 221 3,900 -150 Descending Cleveland Center
Sun 05:18:33 PM 40.8500 -79.7406 244° Southwest 192 221 3,900 -200 Level Cleveland Center
Sun 05:19:33 PM 40.8275 -79.8067 246° West 192 221 3,500 50 Descending Cleveland Center
Sun 05:20:33 PM 40.8069 -79.8672 246° West 192 221 4,000 250 Climbing Cleveland Center
Sun 05:21:33 PM 40.7867 -79.9306 247° West 192 221 4,000  Level Cleveland Center
Sun 05:22:33 PM 40.7661 -79.9908 246° West 192 221 4,000  Level Cleveland Center
Sun 05:23:33 PM 40.7536 -80.0294 247° West 192 221 4,000  Level Cleveland Center
Sun 05:24:33 PM 40.7536 -80.0294 288° West 192 221 4,000  Level Cleveland Center
Sun 05:26:00 PM 40.7667 -79.9500 72° East  Level FlightAware Approximate
Sun 05:33:00 PM 40.7766 -79.9511 72° East  Level Estimated
Sun 05:34:00 PM 40.7766 -79.9511 72° East  Level Estimated

Login

Don't have an account? Register now (free) for customized features, flight alerts, and more!